sensor_id;sensor_type;location;lat;lon;timestamp;P1;durP1;ratioP1;P2;durP2;ratioP2
4812;SDS011;2420;51.202;8.698;2024-01-30T00:00:44;24.60;;;15.07;;
4812;SDS011;2420;51.202;8.698;2024-01-30T00:03:09;27.30;;;16.23;;
4812;SDS011;2420;51.202;8.698;2024-01-30T00:05:35;23.77;;;14.10;;
4812;SDS011;2420;51.202;8.698;2024-01-30T00:08:00;24.58;;;14.57;;
4812;SDS011;2420;51.202;8.698;2024-01-30T00:10:26;26.48;;;15.05;;
4812;SDS011;2420;51.202;8.698;2024-01-30T00:12:51;24.38;;;14.40;;
4812;SDS011;2420;51.202;8.698;2024-01-30T00:15:17;26.75;;;16.25;;
4812;SDS011;2420;51.202;8.698;2024-01-30T00:17:43;25.35;;;15.35;;
4812;SDS011;2420;51.202;8.698;2024-01-30T00:20:09;24.08;;;14.60;;
4812;SDS011;2420;51.202;8.698;2024-01-30T00:22:34;21.63;;;14.23;;
4812;SDS011;2420;51.202;8.698;2024-01-30T00:25:00;20.13;;;13.27;;
4812;SDS011;2420;51.202;8.698;2024-01-30T00:27:26;23.67;;;14.10;;
4812;SDS011;2420;51.202;8.698;2024-01-30T00:29:52;21.45;;;13.73;;
4812;SDS011;2420;51.202;8.698;2024-01-30T00:32:18;26.20;;;14.98;;
4812;SDS011;2420;51.202;8.698;2024-01-30T00:34:44;25.90;;;15.10;;
4812;SDS011;2420;51.202;8.698;2024-01-30T00:37:09;25.20;;;14.02;;
4812;SDS011;2420;51.202;8.698;2024-01-30T00:39:35;21.08;;;13.68;;
4812;SDS011;2420;51.202;8.698;2024-01-30T00:42:01;22.50;;;13.40;;
4812;SDS011;2420;51.202;8.698;2024-01-30T00:44:26;24.45;;;13.38;;
4812;SDS011;2420;51.202;8.698;2024-01-30T00:46:52;22.27;;;13.43;;
4812;SDS011;2420;51.202;8.698;2024-01-30T00:49:17;23.00;;;13.60;;
4812;SDS011;2420;51.202;8.698;2024-01-30T00:51:43;23.15;;;13.20;;
4812;SDS011;2420;51.202;8.698;2024-01-30T00:54:09;23.67;;;13.05;;
4812;SDS011;2420;51.202;8.698;2024-01-30T00:56:34;23.25;;;13.32;;
4812;SDS011;2420;51.202;8.698;2024-01-30T00:59:00;21.42;;;13.43;;
4812;SDS011;2420;51.202;8.698;2024-01-30T01:01:25;22.75;;;14.20;;
4812;SDS011;2420;51.202;8.698;2024-01-30T01:03:51;24.15;;;14.13;;
4812;SDS011;2420;51.202;8.698;2024-01-30T01:06:16;21.35;;;13.95;;
4812;SDS011;2420;51.202;8.698;2024-01-30T01:08:42;23.25;;;13.98;;
4812;SDS011;2420;51.202;8.698;2024-01-30T01:11:07;24.20;;;14.38;;
4812;SDS011;2420;51.202;8.698;2024-01-30T01:13:33;20.92;;;12.68;;
4812;SDS011;2420;51.202;8.698;2024-01-30T01:15:59;23.95;;;13.85;;
4812;SDS011;2420;51.202;8.698;2024-01-30T01:18:24;25.73;;;14.88;;
4812;SDS011;2420;51.202;8.698;2024-01-30T01:20:50;21.55;;;13.35;;
4812;SDS011;2420;51.202;8.698;2024-01-30T01:23:15;20.92;;;13.10;;
4812;SDS011;2420;51.202;8.698;2024-01-30T01:25:41;22.10;;;12.75;;
4812;SDS011;2420;51.202;8.698;2024-01-30T01:28:06;23.10;;;13.82;;
4812;SDS011;2420;51.202;8.698;2024-01-30T01:30:32;21.08;;;13.23;;
4812;SDS011;2420;51.202;8.698;2024-01-30T01:32:58;26.58;;;14.07;;
4812;SDS011;2420;51.202;8.698;2024-01-30T01:35:26;23.80;;;13.68;;
4812;SDS011;2420;51.202;8.698;2024-01-30T01:37:52;21.65;;;12.93;;
4812;SDS011;2420;51.202;8.698;2024-01-30T01:40:26;23.00;;;12.85;;
4812;SDS011;2420;51.202;8.698;2024-01-30T01:42:52;22.33;;;12.80;;
4812;SDS011;2420;51.202;8.698;2024-01-30T01:45:19;21.27;;;13.43;;
4812;SDS011;2420;51.202;8.698;2024-01-30T01:47:46;20.45;;;13.02;;
4812;SDS011;2420;51.202;8.698;2024-01-30T01:50:13;23.75;;;13.40;;
4812;SDS011;2420;51.202;8.698;2024-01-30T01:52:43;19.42;;;12.63;;
4812;SDS011;2420;51.202;8.698;2024-01-30T01:55:11;21.17;;;12.55;;
4812;SDS011;2420;51.202;8.698;2024-01-30T01:57:38;21.40;;;11.98;;
4812;SDS011;2420;51.202;8.698;2024-01-30T02:00:04;20.88;;;12.45;;
4812;SDS011;2420;51.202;8.698;2024-01-30T02:02:31;24.05;;;13.07;;
4812;SDS011;2420;51.202;8.698;2024-01-30T02:07:49;23.42;;;12.70;;
4812;SDS011;2420;51.202;8.698;2024-01-30T02:10:16;19.38;;;11.45;;
4812;SDS011;2420;51.202;8.698;2024-01-30T02:12:42;21.70;;;13.05;;
4812;SDS011;2420;51.202;8.698;2024-01-30T02:15:07;24.52;;;13.68;;
4812;SDS011;2420;51.202;8.698;2024-01-30T02:17:33;23.67;;;13.25;;
4812;SDS011;2420;51.202;8.698;2024-01-30T02:19:59;20.08;;;13.13;;
4812;SDS011;2420;51.202;8.698;2024-01-30T02:22:24;22.77;;;13.70;;
4812;SDS011;2420;51.202;8.698;2024-01-30T02:24:50;24.02;;;13.35;;
4812;SDS011;2420;51.202;8.698;2024-01-30T02:27:16;23.42;;;13.00;;
4812;SDS011;2420;51.202;8.698;2024-01-30T02:29:41;24.85;;;14.68;;
4812;SDS011;2420;51.202;8.698;2024-01-30T02:32:07;23.08;;;14.07;;
4812;SDS011;2420;51.202;8.698;2024-01-30T02:34:32;27.33;;;14.07;;
4812;SDS011;2420;51.202;8.698;2024-01-30T02:36:58;20.35;;;12.95;;
4812;SDS011;2420;51.202;8.698;2024-01-30T02:39:24;26.85;;;14.38;;
4812;SDS011;2420;51.202;8.698;2024-01-30T02:41:50;23.15;;;14.32;;
4812;SDS011;2420;51.202;8.698;2024-01-30T02:44:15;24.60;;;14.02;;
4812;SDS011;2420;51.202;8.698;2024-01-30T02:46:41;24.08;;;13.48;;
4812;SDS011;2420;51.202;8.698;2024-01-30T02:49:06;23.08;;;13.65;;
4812;SDS011;2420;51.202;8.698;2024-01-30T02:51:32;24.88;;;14.07;;
4812;SDS011;2420;51.202;8.698;2024-01-30T02:53:58;21.02;;;13.23;;
4812;SDS011;2420;51.202;8.698;2024-01-30T02:56:23;26.42;;;14.55;;
4812;SDS011;2420;51.202;8.698;2024-01-30T02:58:49;22.33;;;13.02;;
4812;SDS011;2420;51.202;8.698;2024-01-30T03:01:14;20.40;;;12.68;;
4812;SDS011;2420;51.202;8.698;2024-01-30T03:03:40;24.33;;;13.00;;
4812;SDS011;2420;51.202;8.698;2024-01-30T03:06:05;20.23;;;12.77;;
4812;SDS011;2420;51.202;8.698;2024-01-30T03:08:32;23.70;;;13.48;;
4812;SDS011;2420;51.202;8.698;2024-01-30T03:10:57;23.60;;;13.40;;
4812;SDS011;2420;51.202;8.698;2024-01-30T03:13:23;32.28;;;14.00;;
4812;SDS011;2420;51.202;8.698;2024-01-30T03:15:50;24.83;;;13.52;;
4812;SDS011;2420;51.202;8.698;2024-01-30T03:18:15;24.92;;;13.70;;
4812;SDS011;2420;51.202;8.698;2024-01-30T03:20:41;26.92;;;14.82;;
4812;SDS011;2420;51.202;8.698;2024-01-30T03:23:06;27.35;;;14.13;;
4812;SDS011;2420;51.202;8.698;2024-01-30T03:25:32;27.38;;;14.38;;
4812;SDS011;2420;51.202;8.698;2024-01-30T03:27:58;20.40;;;13.23;;
4812;SDS011;2420;51.202;8.698;2024-01-30T03:30:23;25.30;;;15.10;;
4812;SDS011;2420;51.202;8.698;2024-01-30T03:32:49;21.55;;;13.45;;
4812;SDS011;2420;51.202;8.698;2024-01-30T03:35:15;24.85;;;14.45;;
4812;SDS011;2420;51.202;8.698;2024-01-30T03:37:40;22.67;;;14.10;;
4812;SDS011;2420;51.202;8.698;2024-01-30T03:40:06;25.65;;;14.45;;
4812;SDS011;2420;51.202;8.698;2024-01-30T03:42:32;24.58;;;13.57;;
4812;SDS011;2420;51.202;8.698;2024-01-30T03:44:58;24.15;;;13.82;;
4812;SDS011;2420;51.202;8.698;2024-01-30T03:47:23;23.83;;;13.63;;
4812;SDS011;2420;51.202;8.698;2024-01-30T03:49:49;27.63;;;13.45;;
4812;SDS011;2420;51.202;8.698;2024-01-30T03:52:14;23.52;;;13.82;;
4812;SDS011;2420;51.202;8.698;2024-01-30T03:54:40;26.75;;;14.55;;
4812;SDS011;2420;51.202;8.698;2024-01-30T03:57:06;23.60;;;13.95;;
4812;SDS011;2420;51.202;8.698;2024-01-30T03:59:31;25.48;;;14.25;;
4812;SDS011;2420;51.202;8.698;2024-01-30T04:01:57;23.83;;;13.20;;
4812;SDS011;2420;51.202;8.698;2024-01-30T04:04:22;26.20;;;14.82;;
4812;SDS011;2420;51.202;8.698;2024-01-30T04:06:48;24.13;;;13.77;;
4812;SDS011;2420;51.202;8.698;2024-01-30T04:09:14;24.95;;;13.77;;
4812;SDS011;2420;51.202;8.698;2024-01-30T04:11:40;22.58;;;13.50;;
4812;SDS011;2420;51.202;8.698;2024-01-30T04:14:06;26.20;;;14.30;;
4812;SDS011;2420;51.202;8.698;2024-01-30T04:16:32;26.38;;;14.52;;
4812;SDS011;2420;51.202;8.698;2024-01-30T04:18:58;24.35;;;13.93;;
4812;SDS011;2420;51.202;8.698;2024-01-30T04:21:23;25.83;;;14.57;;
4812;SDS011;2420;51.202;8.698;2024-01-30T04:23:50;24.45;;;14.52;;
4812;SDS011;2420;51.202;8.698;2024-01-30T04:26:16;26.77;;;14.85;;
4812;SDS011;2420;51.202;8.698;2024-01-30T04:28:42;27.73;;;14.50;;
4812;SDS011;2420;51.202;8.698;2024-01-30T04:31:09;27.05;;;14.48;;
4812;SDS011;2420;51.202;8.698;2024-01-30T04:33:34;25.98;;;13.40;;
4812;SDS011;2420;51.202;8.698;2024-01-30T04:36:00;26.48;;;14.55;;
4812;SDS011;2420;51.202;8.698;2024-01-30T04:38:26;26.33;;;14.57;;
4812;SDS011;2420;51.202;8.698;2024-01-30T04:40:51;24.80;;;14.30;;
4812;SDS011;2420;51.202;8.698;2024-01-30T04:43:17;22.85;;;13.73;;
4812;SDS011;2420;51.202;8.698;2024-01-30T04:45:44;23.25;;;14.13;;
4812;SDS011;2420;51.202;8.698;2024-01-30T04:48:09;25.67;;;14.27;;
4812;SDS011;2420;51.202;8.698;2024-01-30T04:50:35;21.63;;;13.63;;
4812;SDS011;2420;51.202;8.698;2024-01-30T04:53:01;29.63;;;15.70;;
4812;SDS011;2420;51.202;8.698;2024-01-30T04:55:26;27.92;;;15.00;;
4812;SDS011;2420;51.202;8.698;2024-01-30T04:57:52;27.40;;;15.52;;
4812;SDS011;2420;51.202;8.698;2024-01-30T05:00:18;30.60;;;15.80;;
4812;SDS011;2420;51.202;8.698;2024-01-30T05:02:43;29.90;;;15.85;;
4812;SDS011;2420;51.202;8.698;2024-01-30T05:05:09;31.42;;;15.13;;
4812;SDS011;2420;51.202;8.698;2024-01-30T05:07:34;29.23;;;15.55;;
4812;SDS011;2420;51.202;8.698;2024-01-30T05:10:01;32.15;;;15.55;;
4812;SDS011;2420;51.202;8.698;2024-01-30T05:12:26;29.48;;;15.82;;
4812;SDS011;2420;51.202;8.698;2024-01-30T05:14:52;32.22;;;15.80;;
4812;SDS011;2420;51.202;8.698;2024-01-30T05:17:18;33.42;;;16.80;;
4812;SDS011;2420;51.202;8.698;2024-01-30T05:19:43;29.77;;;16.73;;
4812;SDS011;2420;51.202;8.698;2024-01-30T05:22:09;38.55;;;17.40;;
4812;SDS011;2420;51.202;8.698;2024-01-30T05:24:35;40.38;;;20.25;;
4812;SDS011;2420;51.202;8.698;2024-01-30T05:27:02;38.30;;;18.67;;
4812;SDS011;2420;51.202;8.698;2024-01-30T05:29:27;34.83;;;18.30;;
4812;SDS011;2420;51.202;8.698;2024-01-30T05:31:53;36.83;;;17.25;;
4812;SDS011;2420;51.202;8.698;2024-01-30T05:34:18;30.10;;;16.95;;
4812;SDS011;2420;51.202;8.698;2024-01-30T05:36:44;34.50;;;17.90;;
4812;SDS011;2420;51.202;8.698;2024-01-30T05:39:10;36.92;;;18.30;;
4812;SDS011;2420;51.202;8.698;2024-01-30T05:41:35;35.65;;;18.90;;
4812;SDS011;2420;51.202;8.698;2024-01-30T05:44:01;37.25;;;20.17;;
4812;SDS011;2420;51.202;8.698;2024-01-30T05:46:27;33.13;;;18.55;;
4812;SDS011;2420;51.202;8.698;2024-01-30T05:48:52;39.20;;;18.52;;
4812;SDS011;2420;51.202;8.698;2024-01-30T05:51:18;34.17;;;18.92;;
4812;SDS011;2420;51.202;8.698;2024-01-30T05:53:44;35.65;;;18.67;;
4812;SDS011;2420;51.202;8.698;2024-01-30T05:56:09;36.47;;;18.30;;
4812;SDS011;2420;51.202;8.698;2024-01-30T05:58:35;33.25;;;18.55;;
4812;SDS011;2420;51.202;8.698;2024-01-30T06:01:02;37.40;;;18.30;;
4812;SDS011;2420;51.202;8.698;2024-01-30T06:03:31;34.35;;;17.83;;
4812;SDS011;2420;51.202;8.698;2024-01-30T06:05:57;30.77;;;16.75;;
4812;SDS011;2420;51.202;8.698;2024-01-30T06:08:22;34.08;;;18.00;;
4812;SDS011;2420;51.202;8.698;2024-01-30T06:10:48;32.50;;;17.63;;
4812;SDS011;2420;51.202;8.698;2024-01-30T06:13:14;37.90;;;18.35;;
4812;SDS011;2420;51.202;8.698;2024-01-30T06:15:39;33.83;;;18.85;;
4812;SDS011;2420;51.202;8.698;2024-01-30T06:18:05;37.15;;;20.00;;
4812;SDS011;2420;51.202;8.698;2024-01-30T06:20:30;32.13;;;18.58;;
4812;SDS011;2420;51.202;8.698;2024-01-30T06:22:56;35.85;;;19.30;;
4812;SDS011;2420;51.202;8.698;2024-01-30T06:25:21;34.75;;;19.30;;
4812;SDS011;2420;51.202;8.698;2024-01-30T06:27:47;34.10;;;18.48;;
4812;SDS011;2420;51.202;8.698;2024-01-30T06:30:12;38.40;;;19.42;;
4812;SDS011;2420;51.202;8.698;2024-01-30T06:32:38;34.97;;;19.60;;
4812;SDS011;2420;51.202;8.698;2024-01-30T06:35:04;36.60;;;20.15;;
4812;SDS011;2420;51.202;8.698;2024-01-30T06:37:30;33.83;;;18.85;;
4812;SDS011;2420;51.202;8.698;2024-01-30T06:39:56;37.10;;;18.65;;
4812;SDS011;2420;51.202;8.698;2024-01-30T06:42:22;38.28;;;20.60;;
4812;SDS011;2420;51.202;8.698;2024-01-30T06:44:47;38.22;;;19.63;;
4812;SDS011;2420;51.202;8.698;2024-01-30T06:47:13;36.45;;;21.08;;
4812;SDS011;2420;51.202;8.698;2024-01-30T06:49:38;35.67;;;20.35;;
4812;SDS011;2420;51.202;8.698;2024-01-30T06:52:06;41.40;;;21.50;;
4812;SDS011;2420;51.202;8.698;2024-01-30T06:54:32;40.88;;;20.67;;
4812;SDS011;2420;51.202;8.698;2024-01-30T06:56:58;38.92;;;20.75;;
4812;SDS011;2420;51.202;8.698;2024-01-30T06:59:24;36.05;;;19.70;;
4812;SDS011;2420;51.202;8.698;2024-01-30T07:01:49;39.80;;;20.17;;
4812;SDS011;2420;51.202;8.698;2024-01-30T07:04:15;33.95;;;18.60;;
4812;SDS011;2420;51.202;8.698;2024-01-30T07:06:41;33.60;;;17.80;;
4812;SDS011;2420;51.202;8.698;2024-01-30T07:09:07;36.60;;;18.27;;
4812;SDS011;2420;51.202;8.698;2024-01-30T07:11:33;33.00;;;17.77;;
4812;SDS011;2420;51.202;8.698;2024-01-30T07:13:59;37.70;;;19.58;;
4812;SDS011;2420;51.202;8.698;2024-01-30T07:16:25;38.03;;;19.58;;
4812;SDS011;2420;51.202;8.698;2024-01-30T07:18:50;34.65;;;19.30;;
4812;SDS011;2420;51.202;8.698;2024-01-30T07:21:16;32.55;;;18.42;;
4812;SDS011;2420;51.202;8.698;2024-01-30T07:23:42;33.60;;;19.02;;
4812;SDS011;2420;51.202;8.698;2024-01-30T07:26:08;41.42;;;21.15;;
4812;SDS011;2420;51.202;8.698;2024-01-30T07:28:35;48.90;;;22.20;;
4812;SDS011;2420;51.202;8.698;2024-01-30T07:31:01;40.80;;;20.33;;
4812;SDS011;2420;51.202;8.698;2024-01-30T07:33:27;47.97;;;23.17;;
4812;SDS011;2420;51.202;8.698;2024-01-30T07:35:53;49.35;;;23.92;;
4812;SDS011;2420;51.202;8.698;2024-01-30T07:38:19;48.03;;;22.05;;
4812;SDS011;2420;51.202;8.698;2024-01-30T07:40:44;42.45;;;21.23;;
4812;SDS011;2420;51.202;8.698;2024-01-30T07:43:10;42.35;;;20.77;;
4812;SDS011;2420;51.202;8.698;2024-01-30T07:45:36;48.78;;;23.63;;
4812;SDS011;2420;51.202;8.698;2024-01-30T07:48:03;47.03;;;23.55;;
4812;SDS011;2420;51.202;8.698;2024-01-30T07:50:30;52.50;;;26.48;;
4812;SDS011;2420;51.202;8.698;2024-01-30T07:52:57;51.75;;;25.13;;
4812;SDS011;2420;51.202;8.698;2024-01-30T07:55:24;49.70;;;24.90;;
4812;SDS011;2420;51.202;8.698;2024-01-30T07:57:52;57.80;;;27.15;;
4812;SDS011;2420;51.202;8.698;2024-01-30T08:00:18;54.58;;;26.42;;
4812;SDS011;2420;51.202;8.698;2024-01-30T08:02:45;47.78;;;25.00;;
4812;SDS011;2420;51.202;8.698;2024-01-30T08:05:11;82.18;;;38.22;;
4812;SDS011;2420;51.202;8.698;2024-01-30T08:07:36;68.38;;;34.72;;
4812;SDS011;2420;51.202;8.698;2024-01-30T08:10:02;66.45;;;33.28;;
4812;SDS011;2420;51.202;8.698;2024-01-30T08:12:30;77.60;;;37.42;;
4812;SDS011;2420;51.202;8.698;2024-01-30T08:14:55;61.05;;;31.10;;
4812;SDS011;2420;51.202;8.698;2024-01-30T08:17:21;59.75;;;28.77;;
4812;SDS011;2420;51.202;8.698;2024-01-30T08:19:46;51.30;;;24.95;;
4812;SDS011;2420;51.202;8.698;2024-01-30T08:22:12;45.28;;;23.73;;
4812;SDS011;2420;51.202;8.698;2024-01-30T08:24:38;46.38;;;23.88;;
4812;SDS011;2420;51.202;8.698;2024-01-30T08:27:05;42.65;;;23.02;;
4812;SDS011;2420;51.202;8.698;2024-01-30T08:29:31;46.90;;;24.70;;
4812;SDS011;2420;51.202;8.698;2024-01-30T08:31:57;42.17;;;22.05;;
4812;SDS011;2420;51.202;8.698;2024-01-30T08:34:24;46.17;;;22.50;;
4812;SDS011;2420;51.202;8.698;2024-01-30T08:36:49;38.60;;;20.73;;
4812;SDS011;2420;51.202;8.698;2024-01-30T08:39:15;37.63;;;21.48;;
4812;SDS011;2420;51.202;8.698;2024-01-30T08:41:40;41.13;;;22.58;;
4812;SDS011;2420;51.202;8.698;2024-01-30T08:44:06;41.42;;;23.20;;
4812;SDS011;2420;51.202;8.698;2024-01-30T08:46:32;37.50;;;22.02;;
4812;SDS011;2420;51.202;8.698;2024-01-30T08:48:58;41.67;;;23.77;;
4812;SDS011;2420;51.202;8.698;2024-01-30T08:51:24;43.22;;;23.08;;
4812;SDS011;2420;51.202;8.698;2024-01-30T08:53:50;40.65;;;22.55;;
4812;SDS011;2420;51.202;8.698;2024-01-30T08:56:17;44.08;;;22.73;;
4812;SDS011;2420;51.202;8.698;2024-01-30T08:58:43;41.72;;;22.80;;
4812;SDS011;2420;51.202;8.698;2024-01-30T09:01:09;44.72;;;24.67;;
4812;SDS011;2420;51.202;8.698;2024-01-30T09:03:34;42.60;;;23.33;;
4812;SDS011;2420;51.202;8.698;2024-01-30T09:06:01;59.15;;;30.27;;
4812;SDS011;2420;51.202;8.698;2024-01-30T09:08:27;64.10;;;34.05;;
4812;SDS011;2420;51.202;8.698;2024-01-30T09:10:53;65.05;;;33.03;;
4812;SDS011;2420;51.202;8.698;2024-01-30T09:13:18;80.70;;;41.17;;
4812;SDS011;2420;51.202;8.698;2024-01-30T09:15:44;74.88;;;37.80;;
4812;SDS011;2420;51.202;8.698;2024-01-30T09:18:10;68.32;;;33.90;;
4812;SDS011;2420;51.202;8.698;2024-01-30T09:20:35;42.60;;;24.17;;
4812;SDS011;2420;51.202;8.698;2024-01-30T09:23:01;46.65;;;24.75;;
4812;SDS011;2420;51.202;8.698;2024-01-30T09:25:26;44.75;;;23.63;;
4812;SDS011;2420;51.202;8.698;2024-01-30T09:27:52;40.58;;;23.42;;
4812;SDS011;2420;51.202;8.698;2024-01-30T09:30:17;39.70;;;22.63;;
4812;SDS011;2420;51.202;8.698;2024-01-30T09:32:43;41.63;;;23.33;;
4812;SDS011;2420;51.202;8.698;2024-01-30T09:35:09;35.83;;;21.80;;
4812;SDS011;2420;51.202;8.698;2024-01-30T09:37:34;37.10;;;21.42;;
4812;SDS011;2420;51.202;8.698;2024-01-30T09:40:00;35.20;;;21.42;;
4812;SDS011;2420;51.202;8.698;2024-01-30T09:42:28;37.72;;;21.60;;
4812;SDS011;2420;51.202;8.698;2024-01-30T09:44:54;38.35;;;22.17;;
4812;SDS011;2420;51.202;8.698;2024-01-30T09:47:20;36.72;;;21.48;;
4812;SDS011;2420;51.202;8.698;2024-01-30T09:49:46;35.03;;;21.10;;
4812;SDS011;2420;51.202;8.698;2024-01-30T09:52:12;36.95;;;20.95;;
4812;SDS011;2420;51.202;8.698;2024-01-30T09:54:38;33.05;;;20.92;;
4812;SDS011;2420;51.202;8.698;2024-01-30T09:57:04;32.33;;;20.75;;
4812;SDS011;2420;51.202;8.698;2024-01-30T09:59:30;32.08;;;20.35;;
4812;SDS011;2420;51.202;8.698;2024-01-30T10:01:56;29.98;;;19.60;;
4812;SDS011;2420;51.202;8.698;2024-01-30T10:04:22;32.83;;;20.58;;
4812;SDS011;2420;51.202;8.698;2024-01-30T10:06:48;30.08;;;19.08;;
4812;SDS011;2420;51.202;8.698;2024-01-30T10:09:14;28.88;;;19.67;;
4812;SDS011;2420;51.202;8.698;2024-01-30T10:11:40;31.85;;;20.65;;
4812;SDS011;2420;51.202;8.698;2024-01-30T10:14:05;32.97;;;20.20;;
4812;SDS011;2420;51.202;8.698;2024-01-30T10:16:31;33.05;;;20.73;;
4812;SDS011;2420;51.202;8.698;2024-01-30T10:18:56;34.33;;;21.13;;
4812;SDS011;2420;51.202;8.698;2024-01-30T10:21:22;32.53;;;21.33;;
4812;SDS011;2420;51.202;8.698;2024-01-30T10:23:48;30.77;;;20.95;;
4812;SDS011;2420;51.202;8.698;2024-01-30T10:26:15;32.50;;;20.20;;
4812;SDS011;2420;51.202;8.698;2024-01-30T10:28:42;34.03;;;20.75;;
4812;SDS011;2420;51.202;8.698;2024-01-30T10:31:08;31.35;;;21.00;;
4812;SDS011;2420;51.202;8.698;2024-01-30T10:33:34;32.05;;;21.05;;
4812;SDS011;2420;51.202;8.698;2024-01-30T10:36:05;30.98;;;20.58;;
4812;SDS011;2420;51.202;8.698;2024-01-30T10:38:32;31.42;;;21.23;;
4812;SDS011;2420;51.202;8.698;2024-01-30T10:40:59;30.77;;;19.65;;
4812;SDS011;2420;51.202;8.698;2024-01-30T10:43:32;31.70;;;20.75;;
4812;SDS011;2420;51.202;8.698;2024-01-30T10:46:11;33.00;;;21.08;;
4812;SDS011;2420;51.202;8.698;2024-01-30T10:48:51;30.25;;;20.27;;
4812;SDS011;2420;51.202;8.698;2024-01-30T10:51:23;30.52;;;20.13;;
4812;SDS011;2420;51.202;8.698;2024-01-30T10:53:51;35.47;;;21.33;;
4812;SDS011;2420;51.202;8.698;2024-01-30T10:56:18;31.95;;;20.23;;
4812;SDS011;2420;51.202;8.698;2024-01-30T10:58:46;33.40;;;21.88;;
4812;SDS011;2420;51.202;8.698;2024-01-30T11:01:13;32.92;;;20.58;;
4812;SDS011;2420;51.202;8.698;2024-01-30T11:03:40;36.40;;;23.38;;
4812;SDS011;2420;51.202;8.698;2024-01-30T11:06:10;88.47;;;41.50;;
4812;SDS011;2420;51.202;8.698;2024-01-30T11:08:37;56.20;;;31.38;;
4812;SDS011;2420;51.202;8.698;2024-01-30T11:11:02;35.15;;;21.75;;
4812;SDS011;2420;51.202;8.698;2024-01-30T11:13:34;31.20;;;20.58;;
4812;SDS011;2420;51.202;8.698;2024-01-30T11:16:00;33.55;;;20.63;;
4812;SDS011;2420;51.202;8.698;2024-01-30T11:18:30;32.83;;;21.15;;
4812;SDS011;2420;51.202;8.698;2024-01-30T11:20:57;33.22;;;21.20;;
4812;SDS011;2420;51.202;8.698;2024-01-30T11:23:27;30.08;;;20.67;;
4812;SDS011;2420;51.202;8.698;2024-01-30T11:25:53;32.25;;;20.13;;
4812;SDS011;2420;51.202;8.698;2024-01-30T11:28:21;31.25;;;19.70;;
4812;SDS011;2420;51.202;8.698;2024-01-30T11:30:47;32.72;;;21.60;;
4812;SDS011;2420;51.202;8.698;2024-01-30T11:33:16;31.95;;;20.55;;
4812;SDS011;2420;51.202;8.698;2024-01-30T11:35:56;34.58;;;20.88;;
4812;SDS011;2420;51.202;8.698;2024-01-30T11:38:23;34.70;;;20.90;;
4812;SDS011;2420;51.202;8.698;2024-01-30T11:40:51;30.75;;;20.25;;
4812;SDS011;2420;51.202;8.698;2024-01-30T11:43:17;29.38;;;20.02;;
4812;SDS011;2420;51.202;8.698;2024-01-30T11:45:44;32.85;;;20.08;;
4812;SDS011;2420;51.202;8.698;2024-01-30T11:48:11;29.80;;;19.70;;
4812;SDS011;2420;51.202;8.698;2024-01-30T11:50:37;28.63;;;19.90;;
4812;SDS011;2420;51.202;8.698;2024-01-30T11:53:04;33.40;;;20.35;;
4812;SDS011;2420;51.202;8.698;2024-01-30T11:55:30;30.15;;;19.52;;
4812;SDS011;2420;51.202;8.698;2024-01-30T11:57:59;28.33;;;19.50;;
4812;SDS011;2420;51.202;8.698;2024-01-30T12:00:25;29.95;;;19.27;;
4812;SDS011;2420;51.202;8.698;2024-01-30T12:02:51;31.52;;;19.45;;
4812;SDS011;2420;51.202;8.698;2024-01-30T12:05:21;28.20;;;18.30;;
4812;SDS011;2420;51.202;8.698;2024-01-30T12:07:47;27.50;;;19.13;;
4812;SDS011;2420;51.202;8.698;2024-01-30T12:10:13;26.75;;;18.98;;
4812;SDS011;2420;51.202;8.698;2024-01-30T12:12:39;25.10;;;17.77;;
4812;SDS011;2420;51.202;8.698;2024-01-30T12:15:07;25.95;;;17.30;;
4812;SDS011;2420;51.202;8.698;2024-01-30T12:17:33;25.73;;;17.40;;
4812;SDS011;2420;51.202;8.698;2024-01-30T12:20:06;25.63;;;16.63;;
4812;SDS011;2420;51.202;8.698;2024-01-30T12:22:36;25.45;;;17.30;;
4812;SDS011;2420;51.202;8.698;2024-01-30T12:25:10;26.52;;;17.42;;
4812;SDS011;2420;51.202;8.698;2024-01-30T12:27:37;25.17;;;16.17;;
4812;SDS011;2420;51.202;8.698;2024-01-30T12:30:07;25.02;;;16.17;;
4812;SDS011;2420;51.202;8.698;2024-01-30T12:32:40;23.13;;;16.05;;
4812;SDS011;2420;51.202;8.698;2024-01-30T12:35:10;24.10;;;17.02;;
4812;SDS011;2420;51.202;8.698;2024-01-30T12:37:36;25.92;;;17.23;;
4812;SDS011;2420;51.202;8.698;2024-01-30T12:40:02;24.60;;;17.65;;
4812;SDS011;2420;51.202;8.698;2024-01-30T12:42:28;23.50;;;17.02;;
4812;SDS011;2420;51.202;8.698;2024-01-30T12:44:54;31.63;;;20.23;;
4812;SDS011;2420;51.202;8.698;2024-01-30T12:47:21;25.92;;;17.88;;
4812;SDS011;2420;51.202;8.698;2024-01-30T12:49:47;27.23;;;17.58;;
4812;SDS011;2420;51.202;8.698;2024-01-30T12:52:14;25.20;;;17.23;;
4812;SDS011;2420;51.202;8.698;2024-01-30T12:54:41;24.92;;;17.02;;
4812;SDS011;2420;51.202;8.698;2024-01-30T12:57:06;25.33;;;17.33;;
4812;SDS011;2420;51.202;8.698;2024-01-30T12:59:32;26.63;;;16.65;;
4812;SDS011;2420;51.202;8.698;2024-01-30T13:01:59;26.23;;;17.58;;
4812;SDS011;2420;51.202;8.698;2024-01-30T13:04:25;24.52;;;16.45;;
4812;SDS011;2420;51.202;8.698;2024-01-30T13:06:52;23.67;;;15.27;;
4812;SDS011;2420;51.202;8.698;2024-01-30T13:09:17;21.63;;;14.80;;
4812;SDS011;2420;51.202;8.698;2024-01-30T13:11:43;21.42;;;15.52;;
4812;SDS011;2420;51.202;8.698;2024-01-30T13:14:08;27.67;;;16.38;;
4812;SDS011;2420;51.202;8.698;2024-01-30T13:16:34;25.30;;;16.30;;
4812;SDS011;2420;51.202;8.698;2024-01-30T13:18:59;25.65;;;16.92;;
4812;SDS011;2420;51.202;8.698;2024-01-30T13:21:26;24.55;;;15.85;;
4812;SDS011;2420;51.202;8.698;2024-01-30T13:23:52;25.65;;;16.25;;
4812;SDS011;2420;51.202;8.698;2024-01-30T13:26:19;25.52;;;17.23;;
4812;SDS011;2420;51.202;8.698;2024-01-30T13:28:45;23.35;;;15.90;;
4812;SDS011;2420;51.202;8.698;2024-01-30T13:31:12;23.90;;;16.77;;
4812;SDS011;2420;51.202;8.698;2024-01-30T13:33:39;24.80;;;16.63;;
4812;SDS011;2420;51.202;8.698;2024-01-30T13:36:05;24.50;;;16.27;;
4812;SDS011;2420;51.202;8.698;2024-01-30T13:38:32;23.63;;;15.88;;
4812;SDS011;2420;51.202;8.698;2024-01-30T13:40:58;27.75;;;18.20;;
4812;SDS011;2420;51.202;8.698;2024-01-30T13:43:24;29.95;;;19.67;;
4812;SDS011;2420;51.202;8.698;2024-01-30T13:45:50;26.50;;;18.10;;
4812;SDS011;2420;51.202;8.698;2024-01-30T13:48:15;25.50;;;17.83;;
4812;SDS011;2420;51.202;8.698;2024-01-30T13:50:41;28.45;;;19.10;;
4812;SDS011;2420;51.202;8.698;2024-01-30T13:53:06;29.88;;;20.52;;
4812;SDS011;2420;51.202;8.698;2024-01-30T13:55:33;27.02;;;18.98;;
4812;SDS011;2420;51.202;8.698;2024-01-30T13:57:59;29.73;;;19.27;;
4812;SDS011;2420;51.202;8.698;2024-01-30T14:00:26;26.92;;;18.75;;
4812;SDS011;2420;51.202;8.698;2024-01-30T14:02:52;27.45;;;17.98;;
4812;SDS011;2420;51.202;8.698;2024-01-30T14:05:22;27.83;;;18.40;;
4812;SDS011;2420;51.202;8.698;2024-01-30T14:07:48;26.65;;;17.63;;
4812;SDS011;2420;51.202;8.698;2024-01-30T14:10:16;29.98;;;19.20;;
4812;SDS011;2420;51.202;8.698;2024-01-30T14:12:43;31.17;;;19.80;;
4812;SDS011;2420;51.202;8.698;2024-01-30T14:15:09;31.98;;;21.30;;
4812;SDS011;2420;51.202;8.698;2024-01-30T14:17:36;26.70;;;18.85;;
4812;SDS011;2420;51.202;8.698;2024-01-30T14:20:02;29.23;;;19.92;;
4812;SDS011;2420;51.202;8.698;2024-01-30T14:22:29;32.20;;;22.20;;
4812;SDS011;2420;51.202;8.698;2024-01-30T14:24:55;32.90;;;22.40;;
4812;SDS011;2420;51.202;8.698;2024-01-30T14:27:21;27.25;;;18.55;;
4812;SDS011;2420;51.202;8.698;2024-01-30T14:29:47;27.75;;;18.13;;
4812;SDS011;2420;51.202;8.698;2024-01-30T14:32:12;25.90;;;17.95;;
4812;SDS011;2420;51.202;8.698;2024-01-30T14:34:38;29.15;;;20.25;;
4812;SDS011;2420;51.202;8.698;2024-01-30T14:37:04;27.80;;;19.10;;
4812;SDS011;2420;51.202;8.698;2024-01-30T14:39:30;26.92;;;18.77;;
4812;SDS011;2420;51.202;8.698;2024-01-30T14:41:56;24.95;;;18.50;;
4812;SDS011;2420;51.202;8.698;2024-01-30T14:44:22;32.38;;;25.00;;